<?xml version="1.0" encoding="UTF-8" standalone="no" ?>
<gpx xmlns="http://www.topografix.com/GPX/1/1" xmlns:xsi="http://www.w3.org/2001/XMLSchema-instance" xsi:schemaLocation="http://www.topografix.com/GPX/1/1 http://www.topografix.com/GPX/1/1/gpx.xsd" version="1.1" creator="VisuGPX - https://www.visugpx.com">
  <metadata>
    <name>boucles beaumont</name>
    <desc><![CDATA[boucles beaumont du périgord]]></desc>
  </metadata>
  <trk>
    <name><![CDATA[BBmt69]]></name>
    <trkseg>
      <trkpt lat="44.75093" lon="0.86658">
        <ele>121</ele>
        <time>2009-01-20T12:15:42Z</time>
      </trkpt>
      <trkpt lat="44.75095" lon="0.86628">
        <ele>125</ele>
        <time>2009-01-20T12:16:33Z</time>
      </trkpt>
      <trkpt lat="44.75095" lon="0.86598">
        <ele>126</ele>
        <time>2009-01-20T12:16:37Z</time>
      </trkpt>
      <trkpt lat="44.75095" lon="0.86565">
        <ele>124</ele>
        <time>2009-01-20T12:16:41Z</time>
      </trkpt>
      <trkpt lat="44.75098" lon="0.86533">
        <ele>123</ele>
        <time>2009-01-20T12:16:44Z</time>
      </trkpt>
      <trkpt lat="44.75095" lon="0.865">
        <ele>117</ele>
        <time>2009-01-20T12:16:47Z</time>
      </trkpt>
      <trkpt lat="44.7509" lon="0.86463">
        <ele>117</ele>
        <time>2009-01-20T12:16:49Z</time>
      </trkpt>
      <trkpt lat="44.75085" lon="0.86438">
        <ele>116</ele>
        <time>2009-01-20T12:16:52Z</time>
      </trkpt>
      <trkpt lat="44.75078" lon="0.86413">
        <ele>113</ele>
        <time>2009-01-20T12:16:54Z</time>
      </trkpt>
      <trkpt lat="44.75068" lon="0.8639">
        <ele>109</ele>
        <time>2009-01-20T12:16:56Z</time>
      </trkpt>
      <trkpt lat="44.75055" lon="0.8637">
        <ele>107</ele>
        <time>2009-01-20T12:16:58Z</time>
      </trkpt>
      <trkpt lat="44.7504" lon="0.86353">
        <ele>101</ele>
        <time>2009-01-20T12:17:00Z</time>
      </trkpt>
      <trkpt lat="44.7502" lon="0.86328">
        <ele>98</ele>
        <time>2009-01-20T12:17:03Z</time>
      </trkpt>
      <trkpt lat="44.75003" lon="0.8631">
        <ele>95</ele>
        <time>2009-01-20T12:17:06Z</time>
      </trkpt>
      <trkpt lat="44.7499" lon="0.8629">
        <ele>94</ele>
        <time>2009-01-20T12:17:09Z</time>
      </trkpt>
      <trkpt lat="44.7498" lon="0.86268">
        <ele>94</ele>
        <time>2009-01-20T12:17:12Z</time>
      </trkpt>
      <trkpt lat="44.74985" lon="0.86243">
        <ele>87</ele>
        <time>2009-01-20T12:17:31Z</time>
      </trkpt>
      <trkpt lat="44.74975" lon="0.86218">
        <ele>103</ele>
        <time>2009-01-20T12:18:00Z</time>
      </trkpt>
      <trkpt lat="44.74965" lon="0.86193">
        <ele>108</ele>
        <time>2009-01-20T12:19:11Z</time>
      </trkpt>
      <trkpt lat="44.74953" lon="0.86168">
        <ele>115</ele>
        <time>2009-01-20T12:19:16Z</time>
      </trkpt>
      <trkpt lat="44.74938" lon="0.86143">
        <ele>122</ele>
        <time>2009-01-20T12:19:21Z</time>
      </trkpt>
      <trkpt lat="44.74928" lon="0.86118">
        <ele>128</ele>
        <time>2009-01-20T12:19:27Z</time>
      </trkpt>
      <trkpt lat="44.74923" lon="0.86093">
        <ele>128</ele>
        <time>2009-01-20T12:19:34Z</time>
      </trkpt>
      <trkpt lat="44.74923" lon="0.86065">
        <ele>136</ele>
        <time>2009-01-20T12:19:57Z</time>
      </trkpt>
      <trkpt lat="44.7491" lon="0.86045">
        <ele>127</ele>
        <time>2009-01-20T12:20:13Z</time>
      </trkpt>
      <trkpt lat="44.74903" lon="0.8602">
        <ele>125</ele>
        <time>2009-01-20T12:20:18Z</time>
      </trkpt>
      <trkpt lat="44.7489" lon="0.85998">
        <ele>121</ele>
        <time>2009-01-20T12:20:23Z</time>
      </trkpt>
      <trkpt lat="44.74883" lon="0.85973">
        <ele>123</ele>
        <time>2009-01-20T12:20:28Z</time>
      </trkpt>
      <trkpt lat="44.74873" lon="0.8595">
        <ele>118</ele>
        <time>2009-01-20T12:20:33Z</time>
      </trkpt>
      <trkpt lat="44.74757" lon="0.85597">
        <ele>144</ele>
        <time>2009-06-18T16:43:36Z</time>
      </trkpt>
      <trkpt lat="44.74413" lon="0.85703">
        <ele>152</ele>
        <time>2009-01-26T13:05:37Z</time>
      </trkpt>
    </trkseg>
  </trk>
</gpx>